createdAt,value
2022-10-05T00:02:22.042Z,69.62
2022-10-05T00:04:52.448Z,69.26
2022-10-05T00:07:21.096Z,69.08
2022-10-05T00:10:14.417Z,69.46
2022-10-05T00:12:40.934Z,69.00
2022-10-05T00:15:12.049Z,69.23
2022-10-05T00:17:38.848Z,68.90
2022-10-05T00:20:31.604Z,69.08
2022-10-05T00:23:01.773Z,68.57
2022-10-05T00:25:28.581Z,68.58
2022-10-05T00:27:57.424Z,68.92
2022-10-05T00:30:26.494Z,68.84
2022-10-05T00:32:56.107Z,68.92
2022-10-05T00:35:25.934Z,68.13
2022-10-05T00:37:54.702Z,68.99
2022-10-05T00:40:33.289Z,69.05
2022-10-05T00:43:18.192Z,68.66
2022-10-05T00:46:05.014Z,69.08
2022-10-05T00:48:44.151Z,68.55
2022-10-05T00:51:10.635Z,68.89
2022-10-05T00:53:47.898Z,68.76
2022-10-05T00:56:33.223Z,68.91
2022-10-05T00:59:12.009Z,68.42
2022-10-05T01:01:50.915Z,68.72
2022-10-05T01:04:34.156Z,68.69
2022-10-05T01:07:24.926Z,68.66
2022-10-05T01:10:22.589Z,67.90
2022-10-05T01:12:54.143Z,67.98
2022-10-05T01:15:26.483Z,68.36
2022-10-05T01:18:03.025Z,67.71
2022-10-05T01:20:49.884Z,67.46
2022-10-05T01:23:43.530Z,67.82
2022-10-05T01:26:38.900Z,67.23
2022-10-05T01:29:18.510Z,67.13
2022-10-05T01:32:10.649Z,67.39
2022-10-05T01:34:49.628Z,66.75
2022-10-05T01:37:40.725Z,66.75
2022-10-05T01:40:27.429Z,67.34
2022-10-05T01:43:06.029Z,67.20
2022-10-05T01:46:03.022Z,67.15
2022-10-05T01:48:53.769Z,67.16
2022-10-05T01:51:47.839Z,66.76
2022-10-05T01:54:51.642Z,66.52
2022-10-05T01:57:50.392Z,66.84
2022-10-05T02:00:18.638Z,66.29
2022-10-05T02:02:56.975Z,66.30
2022-10-05T02:05:41.024Z,66.50
2022-10-05T02:08:15.628Z,66.44
2022-10-05T02:10:49.175Z,66.19
2022-10-05T02:13:21.467Z,66.32
2022-10-05T02:16:00.502Z,66.08
2022-10-05T02:18:33.872Z,66.59
2022-10-05T02:21:04.561Z,66.44
2022-10-05T02:23:34.402Z,66.65
2022-10-05T02:26:01.593Z,66.23
2022-10-05T02:28:48.058Z,66.63
2022-10-05T02:31:31.011Z,65.97
2022-10-05T02:34:23.619Z,66.05
2022-10-05T02:37:05.254Z,66.05
2022-10-05T02:39:58.754Z,65.98
2022-10-05T02:42:56.351Z,66.20
2022-10-05T02:45:36.290Z,66.15
2022-10-05T02:48:08.284Z,66.19
2022-10-05T02:50:41.447Z,66.13
2022-10-05T02:53:25.884Z,65.71
2022-10-05T02:56:07.756Z,66.11
2022-10-05T02:58:47.935Z,65.98
2022-10-05T03:01:27.393Z,66.29
2022-10-05T03:04:18.445Z,65.94
2022-10-05T03:07:02.087Z,66.13
2022-10-05T03:09:42.055Z,65.84
2022-10-05T03:12:36.212Z,65.75
2022-10-05T03:15:08.987Z,66.50
2022-10-05T03:18:08.627Z,66.24
2022-10-05T03:20:41.341Z,66.46
2022-10-05T03:23:21.127Z,66.22
2022-10-05T03:26:07.957Z,66.33
2022-10-05T03:28:46.759Z,66.47
2022-10-05T03:31:29.564Z,66.55
2022-10-05T03:34:06.179Z,66.47
2022-10-05T03:36:49.257Z,66.61
2022-10-05T03:39:34.506Z,66.49
2022-10-05T03:42:27.592Z,66.73
2022-10-05T03:45:09.170Z,66.48
2022-10-05T03:47:38.825Z,66.76
2022-10-05T03:50:22.796Z,66.39
2022-10-05T03:53:09.278Z,66.50
2022-10-05T03:56:03.299Z,66.43
2022-10-05T03:58:33.577Z,66.75
2022-10-05T04:01:06.362Z,66.69
2022-10-05T04:03:39.244Z,66.20
2022-10-05T04:06:14.739Z,66.41
2022-10-05T04:09:07.216Z,66.80
2022-10-05T04:11:43.162Z,66.71
2022-10-05T04:14:27.603Z,66.57
2022-10-05T04:17:09.417Z,66.74
2022-10-05T04:19:41.444Z,66.22
2022-10-05T04:22:18.176Z,66.50
2022-10-05T04:24:49.742Z,66.53
2022-10-05T04:27:30.845Z,66.69
2022-10-05T04:30:04.145Z,66.34
2022-10-05T04:32:53.674Z,66.76
2022-10-05T04:35:44.738Z,66.08
2022-10-05T04:38:30.092Z,66.34
2022-10-05T04:41:18.898Z,66.54
2022-10-05T04:44:22.567Z,66.43
2022-10-05T04:47:22.357Z,66.30
2022-10-05T04:50:07.550Z,66.28
2022-10-05T04:52:59.708Z,66.12
2022-10-05T04:55:47.471Z,66.53
2022-10-05T04:58:19.826Z,66.76
2022-10-05T05:01:07.983Z,66.20
2022-10-05T05:03:48.705Z,66.87
2022-10-05T05:06:24.348Z,66.61
2022-10-05T05:09:11.935Z,66.94
2022-10-05T05:11:38.401Z,66.87
2022-10-05T05:14:19.527Z,66.93
2022-10-05T05:17:08.499Z,66.90
2022-10-05T05:19:57.475Z,67.01
2022-10-05T05:22:49.665Z,66.79
2022-10-05T05:25:28.757Z,67.32
2022-10-05T05:28:04.098Z,67.13
2022-10-05T05:30:40.547Z,67.16
2022-10-05T05:33:38.389Z,67.14
2022-10-05T05:36:07.913Z,67.67
2022-10-05T05:39:12.158Z,67.60
2022-10-05T05:41:50.179Z,67.41
2022-10-05T05:44:38.586Z,67.42
2022-10-05T05:47:30.044Z,67.13
2022-10-05T05:50:07.594Z,67.40
2022-10-05T05:52:49.268Z,67.41
2022-10-05T05:55:24.357Z,67.90
2022-10-05T05:58:20.442Z,67.31
2022-10-05T06:00:55.008Z,67.74
2022-10-05T06:03:28.100Z,67.74
2022-10-05T06:05:59.272Z,67.74
2022-10-05T06:08:38.388Z,67.99
2022-10-05T06:11:36.519Z,67.76
2022-10-05T06:14:17.108Z,67.76
2022-10-05T06:16:59.018Z,67.99
2022-10-05T06:19:27.245Z,67.38
2022-10-05T06:21:56.881Z,67.86
2022-10-05T06:24:31.674Z,67.80
2022-10-05T06:27:07.616Z,67.54
2022-10-05T06:30:11.066Z,67.83
2022-10-05T06:32:42.750Z,67.64
2022-10-05T06:35:19.325Z,67.89
2022-10-05T06:38:04.886Z,67.88
2022-10-05T06:40:56.308Z,68.31
2022-10-05T06:43:28.947Z,68.58
2022-10-05T06:46:34.550Z,67.91
2022-10-05T06:49:25.656Z,67.79
2022-10-05T06:52:34.179Z,67.66
2022-10-05T06:55:22.880Z,68.31
2022-10-05T06:58:12.089Z,68.65
2022-10-05T07:00:47.348Z,68.09
2022-10-05T07:03:57.828Z,68.93
2022-10-05T07:07:17.030Z,68.73
2022-10-05T07:10:07.659Z,68.59
2022-10-05T07:12:56.345Z,68.88
2022-10-05T07:15:40.872Z,68.57
2022-10-05T07:18:27.179Z,68.73
2022-10-05T07:21:03.764Z,68.72
2022-10-05T07:24:08.082Z,68.85
2022-10-05T07:26:42.659Z,69.31
2022-10-05T07:29:16.708Z,69.28
2022-10-05T07:31:53.523Z,68.65
2022-10-05T07:34:50.266Z,68.98
2022-10-05T07:37:27.973Z,68.91
2022-10-05T07:40:01.324Z,68.42
2022-10-05T07:42:52.406Z,68.19
2022-10-05T07:45:29.893Z,68.96
2022-10-05T07:48:06.064Z,68.39
2022-10-05T07:50:53.034Z,68.31
2022-10-05T07:53:27.357Z,68.41
2022-10-05T07:55:58.428Z,68.23
2022-10-05T07:58:57.363Z,68.36
2022-10-05T08:01:35.444Z,68.29
2022-10-05T08:04:16.358Z,67.90
2022-10-05T08:06:53.899Z,67.43
2022-10-05T08:09:26.612Z,67.07
2022-10-05T08:12:30.974Z,67.54
2022-10-05T08:15:09.700Z,66.99
2022-10-05T08:17:59.934Z,67.32
2022-10-05T08:20:35.709Z,67.10
2022-10-05T08:23:15.869Z,66.33
2022-10-05T08:29:13.750Z,66.83
2022-10-05T08:31:45.812Z,66.35
2022-10-05T08:34:49.783Z,65.81
2022-10-05T08:37:31.864Z,65.43
2022-10-05T08:40:36.897Z,65.21
2022-10-05T08:43:06.618Z,64.77
2022-10-05T08:45:45.883Z,64.60
2022-10-05T08:48:41.964Z,64.64
2022-10-05T08:51:23.856Z,64.75
2022-10-05T08:54:05.854Z,63.91
2022-10-05T08:56:35.421Z,64.65
2022-10-05T08:59:20.650Z,63.90
2022-10-05T09:02:15.172Z,64.05
2022-10-05T09:04:54.369Z,64.44
2022-10-05T09:07:48.792Z,63.99
2022-10-05T09:10:37.513Z,64.12
2022-10-05T09:13:22.380Z,63.38
2022-10-05T09:16:16.853Z,62.35
2022-10-05T09:19:07.977Z,62.76
2022-10-05T09:21:57.763Z,63.00
2022-10-05T09:24:48.504Z,62.53
2022-10-05T09:27:17.316Z,61.57
2022-10-05T09:30:14.891Z,61.58
2022-10-05T09:33:03.357Z,62.04
2022-10-05T09:36:12.526Z,61.37
2022-10-05T09:39:25.928Z,60.48
2022-10-05T09:42:29.781Z,58.59
2022-10-05T09:44:59.622Z,59.22
2022-10-05T09:47:29.327Z,58.72
2022-10-05T09:50:25.321Z,57.94
2022-10-05T09:53:29.174Z,56.91
2022-10-05T09:55:55.708Z,57.29
2022-10-05T09:58:44.520Z,56.06
2022-10-05T10:01:33.044Z,56.65
2022-10-05T10:04:21.230Z,56.46
2022-10-05T10:07:25.472Z,55.59
2022-10-05T10:10:30.158Z,55.26
2022-10-05T10:13:34.294Z,54.73
2022-10-05T10:16:18.169Z,54.51
2022-10-05T10:19:03.527Z,52.98
2022-10-05T10:21:41.683Z,51.73
2022-10-05T10:24:18.598Z,52.47
2022-10-05T10:27:03.452Z,51.92
2022-10-05T10:29:56.716Z,52.30
2022-10-05T10:32:32.151Z,53.25
2022-10-05T10:35:20.169Z,52.54
2022-10-05T10:37:52.889Z,52.97
2022-10-05T10:40:28.669Z,53.00
2022-10-05T10:43:37.071Z,53.17
2022-10-05T10:49:58.693Z,52.89
2022-10-05T10:53:01.378Z,52.30
2022-10-05T10:55:40.157Z,52.80
2022-10-05T10:58:44.293Z,52.99
2022-10-05T11:01:16.723Z,52.42
2022-10-05T11:04:07.143Z,52.53
2022-10-05T11:06:51.530Z,53.20
2022-10-05T11:09:28.940Z,52.16
2022-10-05T11:12:04.204Z,52.53
2022-10-05T11:14:50.138Z,52.22
2022-10-05T11:17:47.836Z,52.72
2022-10-05T11:20:35.740Z,52.92
2022-10-05T11:23:26.970Z,52.72
2022-10-05T11:26:09.221Z,52.76
2022-10-05T11:29:00.096Z,52.82
2022-10-05T11:31:53.296Z,52.61
2022-10-05T11:34:38.866Z,52.68
2022-10-05T11:37:34.324Z,53.02
2022-10-05T11:40:14.422Z,53.31
2022-10-05T11:42:59.244Z,53.36
2022-10-05T11:45:35.420Z,53.94
2022-10-05T11:48:30.283Z,54.28
2022-10-05T11:51:11.823Z,54.16
2022-10-05T11:54:06.574Z,54.16
2022-10-05T11:56:42.167Z,54.78
2022-10-05T11:59:34.785Z,54.86
2022-10-05T12:02:41.209Z,55.28
2022-10-05T12:05:48.236Z,55.78
2022-10-05T12:08:20.753Z,55.77
2022-10-05T12:11:29.107Z,56.49
2022-10-05T12:13:55.507Z,56.44
2022-10-05T12:16:28.464Z,56.99
2022-10-05T12:19:13.647Z,57.35
2022-10-05T12:21:49.275Z,57.93
2022-10-05T12:24:29.819Z,58.71
2022-10-05T12:27:07.309Z,59.70
2022-10-05T12:29:39.687Z,60.09
2022-10-05T12:32:22.421Z,60.90
2022-10-05T12:35:29.983Z,62.06
2022-10-05T12:38:40.345Z,62.53
2022-10-05T12:41:30.342Z,61.95
2022-10-05T12:44:24.567Z,62.98
2022-10-05T12:47:00.095Z,63.20
2022-10-05T12:49:47.931Z,63.17
2022-10-05T12:52:23.447Z,63.83
2022-10-05T12:55:06.469Z,63.79
2022-10-05T12:57:47.645Z,64.36
2022-10-05T13:00:23.021Z,64.29
2022-10-05T13:02:54.553Z,64.65
2022-10-05T13:05:41.167Z,65.37
2022-10-05T13:08:23.717Z,65.34
2022-10-05T13:11:26.452Z,65.82
2022-10-05T13:14:06.136Z,66.26
2022-10-05T13:16:56.553Z,66.29
2022-10-05T13:19:40.304Z,66.91
2022-10-05T13:22:15.940Z,67.14
2022-10-05T13:25:13.585Z,67.43
2022-10-05T13:27:45.046Z,67.68
2022-10-05T13:30:16.933Z,68.19
2022-10-05T13:32:58.063Z,68.86
2022-10-05T13:35:24.458Z,69.00
2022-10-05T13:38:00.247Z,70.48
2022-10-05T13:40:45.908Z,71.13
2022-10-05T13:43:57.393Z,71.05
2022-10-05T13:46:58.151Z,71.64
2022-10-05T13:49:41.185Z,71.41
2022-10-05T13:52:30.980Z,74.13
2022-10-05T13:55:21.395Z,74.09
2022-10-05T13:58:22.577Z,72.33
2022-10-05T14:00:55.622Z,68.71
2022-10-05T14:03:34.129Z,68.08
2022-10-05T14:06:03.602Z,68.65
2022-10-05T14:08:46.083Z,68.73
2022-10-05T14:11:47.471Z,69.32
2022-10-05T14:14:23.156Z,68.93
2022-10-05T14:19:41.627Z,69.46
2022-10-05T14:22:12.591Z,69.53
2022-10-05T14:24:53.978Z,70.03
2022-10-05T14:27:22.572Z,70.03
2022-10-05T14:30:01.534Z,69.99
2022-10-05T14:32:33.161Z,70.49
2022-10-05T14:35:15.630Z,69.84
2022-10-05T14:37:51.096Z,70.87
2022-10-05T14:41:02.089Z,71.43
2022-10-05T14:43:28.984Z,71.25
2022-10-05T14:46:00.502Z,71.39
2022-10-05T14:48:29.090Z,70.77
2022-10-05T14:50:58.406Z,71.33
2022-10-05T14:53:37.078Z,71.84
2022-10-05T14:56:10.733Z,71.36
2022-10-05T14:59:01.967Z,70.91
2022-10-05T15:01:29.805Z,70.70
2022-10-05T15:04:14.742Z,70.51
2022-10-05T15:07:10.915Z,70.81
2022-10-05T15:09:55.741Z,70.71
2022-10-05T15:12:32.145Z,71.36
2022-10-05T15:15:18.009Z,70.50
2022-10-05T15:17:50.909Z,70.75
2022-10-05T15:20:24.331Z,70.57
2022-10-05T15:22:57.462Z,70.52
2022-10-05T15:25:34.475Z,70.09
2022-10-05T15:28:26.500Z,70.96
2022-10-05T15:31:03.177Z,70.69
2022-10-05T15:33:40.411Z,70.63
2022-10-05T15:36:19.569Z,70.74
2022-10-05T15:39:00.572Z,70.67
2022-10-05T15:41:42.950Z,70.62
2022-10-05T15:44:31.577Z,71.08
2022-10-05T15:47:05.991Z,70.86
2022-10-05T15:49:35.328Z,71.32
2022-10-05T15:52:35.452Z,71.86
2022-10-05T15:55:20.859Z,71.68
2022-10-05T15:57:58.283Z,71.74
2022-10-05T16:00:26.368Z,71.70
2022-10-05T16:03:17.444Z,71.42
2022-10-05T16:05:48.929Z,71.49
2022-10-05T16:08:31.035Z,71.24
2022-10-05T16:10:59.075Z,71.18
2022-10-05T16:13:36.297Z,71.80
2022-10-05T16:16:28.787Z,71.36
2022-10-05T16:19:02.530Z,70.73
2022-10-05T16:21:50.847Z,69.91
2022-10-05T16:24:59.345Z,69.59
2022-10-05T16:27:47.566Z,68.67
2022-10-05T16:30:19.763Z,68.11
2022-10-05T16:32:54.421Z,67.93
2022-10-05T16:35:33.011Z,68.09
2022-10-05T16:38:21.482Z,67.65
2022-10-05T16:40:48.071Z,67.81
2022-10-05T16:43:39.149Z,67.78
2022-10-05T16:46:10.330Z,67.83
2022-10-05T16:48:55.412Z,67.13
2022-10-05T16:51:27.846Z,67.26
2022-10-05T16:54:09.862Z,67.26
2022-10-05T16:56:53.827Z,65.61
2022-10-05T16:59:42.736Z,64.96
2022-10-05T17:02:40.500Z,63.90
2022-10-05T17:05:37.464Z,63.01
2022-10-05T17:08:18.915Z,63.64
2022-10-05T17:11:00.756Z,63.48
2022-10-05T17:13:30.251Z,63.22
2022-10-05T17:15:59.639Z,63.28
2022-10-05T17:18:56.969Z,62.70
2022-10-05T17:21:27.039Z,63.39
2022-10-05T17:24:28.251Z,62.38
2022-10-05T17:27:13.233Z,62.11
2022-10-05T17:29:48.890Z,61.72
2022-10-05T17:32:15.301Z,61.68
2022-10-05T17:35:00.103Z,61.00
2022-10-05T17:37:39.083Z,61.48
2022-10-05T17:40:37.722Z,61.97
2022-10-05T17:43:16.319Z,61.69
2022-10-05T17:45:42.719Z,62.76
2022-10-05T17:48:33.355Z,62.78
2022-10-05T17:50:59.865Z,62.84
2022-10-05T17:53:44.483Z,62.34
2022-10-05T17:56:10.992Z,62.36
2022-10-05T17:58:49.427Z,62.07
2022-10-05T18:01:39.836Z,62.29
2022-10-05T18:04:12.405Z,62.36
2022-10-05T18:07:05.242Z,62.08
2022-10-05T18:09:34.885Z,62.29
2022-10-05T18:12:16.859Z,62.21
2022-10-05T18:15:01.495Z,62.30
2022-10-05T18:17:37.039Z,62.54
2022-10-05T18:20:15.579Z,62.50
2022-10-05T18:22:42.095Z,62.38
2022-10-05T18:25:23.287Z,62.23
2022-10-05T18:27:57.962Z,62.79
2022-10-05T18:30:26.790Z,63.48
2022-10-05T18:33:26.073Z,65.69
2022-10-05T18:36:18.787Z,66.82
2022-10-05T18:38:58.879Z,67.07
2022-10-05T18:41:51.422Z,66.99
2022-10-05T18:44:33.976Z,66.01
2022-10-05T18:47:39.006Z,64.61
2022-10-05T18:50:14.966Z,64.72
2022-10-05T18:53:07.945Z,63.86
2022-10-05T18:55:56.002Z,62.94
2022-10-05T18:58:29.777Z,63.81
2022-10-05T19:01:05.604Z,62.68
2022-10-05T19:03:55.436Z,63.32
2022-10-05T19:07:14.023Z,63.49
2022-10-05T19:10:01.982Z,62.91
2022-10-05T19:12:46.745Z,64.11
2022-10-05T19:15:17.117Z,63.57
2022-10-05T19:18:07.912Z,63.89
2022-10-05T19:21:05.438Z,64.01
2022-10-05T19:23:56.592Z,63.54
2022-10-05T19:26:38.154Z,63.61
2022-10-05T19:29:16.694Z,63.75
2022-10-05T19:31:53.018Z,64.08
2022-10-05T19:34:50.518Z,63.30
2022-10-05T19:37:34.642Z,63.27
2022-10-05T19:40:22.232Z,63.93
2022-10-05T19:43:07.398Z,64.24
2022-10-05T19:45:43.168Z,63.82
2022-10-05T19:48:28.349Z,64.33
2022-10-05T19:51:00.117Z,64.29
2022-10-05T19:53:29.502Z,65.14
2022-10-05T19:55:56.596Z,64.22
2022-10-05T19:58:26.220Z,64.62
2022-10-05T20:01:01.664Z,65.23
2022-10-05T20:03:32.824Z,65.71
2022-10-05T20:06:10.335Z,65.04
2022-10-05T20:08:42.802Z,65.33
2022-10-05T20:11:15.183Z,65.40
2022-10-05T20:13:44.582Z,65.47
2022-10-05T20:16:17.064Z,65.95
2022-10-05T20:18:43.497Z,65.58
2022-10-05T20:21:41.988Z,65.41
2022-10-05T20:24:15.870Z,65.15
2022-10-05T20:26:44.209Z,65.31
2022-10-05T20:29:10.636Z,66.02
2022-10-05T20:31:37.120Z,65.20
2022-10-05T20:34:03.689Z,64.98
2022-10-05T20:36:30.124Z,65.16
2022-10-05T20:38:56.524Z,65.18
2022-10-05T20:41:22.979Z,64.26
2022-10-05T20:43:49.438Z,65.00
2022-10-05T20:46:15.851Z,64.39
2022-10-05T20:48:42.340Z,64.07
2022-10-05T20:51:08.767Z,64.55
2022-10-05T20:53:35.205Z,63.78
2022-10-05T20:56:02.063Z,64.02
2022-10-05T20:58:28.686Z,63.54
2022-10-05T21:00:55.625Z,64.28
2022-10-05T21:03:22.107Z,63.49
2022-10-05T21:05:48.523Z,63.86
2022-10-05T21:08:14.965Z,63.82
2022-10-05T21:10:41.431Z,63.68
2022-10-05T21:13:07.946Z,63.44
2022-10-05T21:15:34.472Z,63.65
2022-10-05T21:18:00.919Z,63.56
2022-10-05T21:20:27.318Z,63.14
2022-10-05T21:22:53.760Z,63.41
2022-10-05T21:25:20.193Z,63.50
2022-10-05T21:27:46.653Z,63.79
2022-10-05T21:30:13.226Z,62.86
2022-10-05T21:32:44.232Z,63.07
2022-10-05T21:35:11.404Z,62.88
2022-10-05T21:37:37.885Z,63.48
2022-10-05T21:40:04.700Z,63.65
2022-10-05T21:42:32.390Z,63.56
2022-10-05T21:44:58.863Z,63.44
2022-10-05T21:47:25.800Z,63.05
2022-10-05T21:49:52.520Z,63.81
2022-10-05T21:52:19.561Z,63.98
2022-10-05T21:54:46.149Z,63.19
2022-10-05T21:57:12.750Z,64.05
2022-10-05T21:59:40.216Z,63.96
2022-10-05T22:02:07.005Z,64.03
2022-10-05T22:04:33.492Z,63.86
2022-10-05T22:06:59.936Z,63.23
2022-10-05T22:09:26.530Z,63.53
2022-10-05T22:11:52.941Z,63.78
2022-10-05T22:14:19.612Z,63.87
2022-10-05T22:16:46.146Z,63.32
2022-10-05T22:19:16.471Z,63.67
2022-10-05T22:21:42.934Z,63.78
2022-10-05T22:24:10.243Z,63.88
2022-10-05T22:26:36.886Z,63.54
2022-10-05T22:29:03.661Z,64.03
2022-10-05T22:31:30.319Z,64.03
2022-10-05T22:33:56.846Z,63.89
2022-10-05T22:36:23.559Z,63.81
2022-10-05T22:38:50.049Z,64.29
2022-10-05T22:41:16.544Z,64.00
2022-10-05T22:43:43.043Z,64.19
2022-10-05T22:46:13.423Z,64.66
2022-10-05T22:48:40.231Z,64.58
2022-10-05T22:51:07.210Z,63.99
2022-10-05T22:53:34.299Z,64.37
2022-10-05T22:56:13.089Z,64.99
2022-10-05T22:58:41.431Z,64.58
2022-10-05T23:01:10.845Z,65.34
2022-10-05T23:03:39.822Z,64.90
2022-10-05T23:06:10.043Z,64.78
2022-10-05T23:08:37.963Z,65.03
2022-10-05T23:11:10.646Z,65.52
2022-10-05T23:13:37.169Z,65.45
2022-10-05T23:16:11.147Z,66.03
2022-10-05T23:18:37.685Z,66.07
2022-10-05T23:21:05.628Z,66.38
2022-10-05T23:23:32.113Z,65.87
2022-10-05T23:26:00.020Z,66.45
2022-10-05T23:28:27.844Z,66.68
2022-10-05T23:31:02.735Z,66.84
2022-10-05T23:33:29.481Z,66.64
2022-10-05T23:36:08.748Z,66.33
2022-10-05T23:38:35.916Z,66.78
2022-10-05T23:41:02.606Z,66.30
2022-10-05T23:43:29.477Z,66.56
2022-10-05T23:45:56.304Z,66.63
2022-10-05T23:48:22.858Z,66.92
2022-10-05T23:50:49.824Z,66.84
2022-10-05T23:53:17.197Z,66.99
2022-10-05T23:55:44.091Z,66.71
2022-10-05T23:58:10.982Z,66.92
